createdAt,value
2023-05-19T00:01:45.377Z,62.72
2023-05-19T00:04:15.586Z,62.85
2023-05-19T00:06:44.748Z,62.01
2023-05-19T00:09:12.922Z,62.19
2023-05-19T00:11:41.939Z,62.03
2023-05-19T00:14:10.704Z,62.06
2023-05-19T00:16:39.327Z,62.61
2023-05-19T00:19:10.049Z,62.24
2023-05-19T00:21:40.208Z,62.08
2023-05-19T00:24:08.424Z,62.41
2023-05-19T00:26:36.316Z,62.21
2023-05-19T00:29:06.352Z,62.34
2023-05-19T00:31:34.878Z,62.23
2023-05-19T00:34:02.879Z,62.63
2023-05-19T00:36:30.982Z,62.90
2023-05-19T00:39:00.237Z,62.79
2023-05-19T00:41:29.869Z,62.73
2023-05-19T00:43:57.652Z,62.58
2023-05-19T00:46:25.951Z,62.78
2023-05-19T00:48:53.857Z,62.75
2023-05-19T00:51:21.920Z,62.30
2023-05-19T00:53:51.983Z,62.92
2023-05-19T00:56:22.468Z,63.59
2023-05-19T00:58:52.155Z,63.34
2023-05-19T01:01:21.515Z,63.90
2023-05-19T01:03:51.346Z,63.54
2023-05-19T01:06:20.884Z,63.29
2023-05-19T01:08:49.896Z,63.24
2023-05-19T01:11:17.766Z,63.63
2023-05-19T01:13:47.053Z,63.37
2023-05-19T01:16:20.543Z,63.71
2023-05-19T01:18:56.156Z,63.64
2023-05-19T01:22:06.755Z,63.86
2023-05-19T01:25:08.833Z,63.15
2023-05-19T01:28:07.000Z,63.55
2023-05-19T01:30:38.306Z,63.37
2023-05-19T01:33:09.038Z,63.31
2023-05-19T01:35:38.127Z,63.34
2023-05-19T01:38:09.872Z,63.38
2023-05-19T01:40:38.243Z,63.25
2023-05-19T01:43:06.169Z,63.60
2023-05-19T01:45:36.125Z,63.54
2023-05-19T01:48:07.787Z,62.99
2023-05-19T01:50:37.178Z,63.66
2023-05-19T01:53:05.099Z,63.71
2023-05-19T01:55:36.239Z,64.22
2023-05-19T01:58:12.128Z,64.23
2023-05-19T02:00:50.424Z,63.91
2023-05-19T02:03:31.017Z,64.17
2023-05-19T02:06:04.504Z,64.18
2023-05-19T02:08:43.342Z,63.90
2023-05-19T02:11:16.120Z,63.67
2023-05-19T02:13:45.698Z,63.59
2023-05-19T02:16:15.658Z,64.01
2023-05-19T02:18:45.430Z,64.01
2023-05-19T02:21:13.820Z,63.93
2023-05-19T02:23:42.274Z,63.86
2023-05-19T02:26:10.266Z,63.63
2023-05-19T02:28:38.130Z,62.92
2023-05-19T02:31:08.842Z,63.19
2023-05-19T02:33:38.060Z,63.57
2023-05-19T02:36:06.849Z,63.53
2023-05-19T02:38:34.709Z,63.41
2023-05-19T02:41:02.592Z,63.73
2023-05-19T02:43:31.410Z,63.24
2023-05-19T02:45:59.475Z,63.41
2023-05-19T02:48:28.034Z,63.22
2023-05-19T02:50:57.337Z,63.79
2023-05-19T02:53:25.564Z,63.88
2023-05-19T02:55:53.761Z,64.41
2023-05-19T02:58:21.664Z,64.10
2023-05-19T03:00:49.520Z,64.15
2023-05-19T03:03:18.129Z,63.45
2023-05-19T03:05:46.101Z,63.89
2023-05-19T03:08:15.519Z,63.94
2023-05-19T03:10:43.457Z,64.20
2023-05-19T03:13:11.403Z,63.93
2023-05-19T03:15:39.363Z,63.96
2023-05-19T03:18:07.369Z,64.14
2023-05-19T03:20:35.288Z,63.68
2023-05-19T03:23:03.225Z,63.92
2023-05-19T03:25:32.817Z,64.02
2023-05-19T03:28:00.718Z,63.85
2023-05-19T03:30:28.645Z,63.85
2023-05-19T03:33:07.539Z,63.84
2023-05-19T03:35:35.566Z,63.74
2023-05-19T03:38:03.737Z,63.94
2023-05-19T03:40:33.326Z,64.11
2023-05-19T03:43:06.173Z,64.14
2023-05-19T03:45:38.713Z,64.10
2023-05-19T03:48:24.359Z,63.91
2023-05-19T03:51:12.311Z,64.17
2023-05-19T03:53:41.258Z,63.91
2023-05-19T03:56:13.544Z,64.27
2023-05-19T03:58:43.444Z,64.45
2023-05-19T04:01:11.894Z,64.24
2023-05-19T04:03:39.976Z,64.01
2023-05-19T04:06:09.163Z,63.91
2023-05-19T04:08:36.965Z,63.72
2023-05-19T04:11:05.146Z,64.02
2023-05-19T04:13:35.051Z,63.13
2023-05-19T04:16:03.115Z,62.96
2023-05-19T04:18:31.138Z,62.79
2023-05-19T04:20:59.047Z,62.35
2023-05-19T04:23:26.965Z,62.45
2023-05-19T04:25:57.112Z,62.87
2023-05-19T04:28:25.262Z,63.49
2023-05-19T04:30:55.118Z,63.78
2023-05-19T04:33:23.066Z,62.99
2023-05-19T04:35:51.683Z,63.18
2023-05-19T04:38:20.143Z,63.62
2023-05-19T04:40:51.969Z,63.81
2023-05-19T04:43:22.168Z,64.04
2023-05-19T04:45:51.427Z,63.24
2023-05-19T04:48:23.047Z,63.46
2023-05-19T04:50:51.861Z,62.99
2023-05-19T04:53:21.681Z,63.12
2023-05-19T04:55:50.258Z,63.10
2023-05-19T04:58:18.329Z,63.29
2023-05-19T05:00:46.698Z,63.47
2023-05-19T05:03:15.162Z,63.16
2023-05-19T05:05:44.514Z,63.01
2023-05-19T05:08:12.511Z,63.07
2023-05-19T05:10:43.772Z,62.86
2023-05-19T05:13:12.340Z,62.32
2023-05-19T05:15:42.154Z,62.05
2023-05-19T05:18:11.789Z,62.70
2023-05-19T05:20:40.922Z,61.76
2023-05-19T05:23:14.348Z,62.91
2023-05-19T05:25:45.044Z,62.55
2023-05-19T05:28:13.543Z,62.38
2023-05-19T05:30:43.640Z,62.40
2023-05-19T05:33:11.825Z,61.96
2023-05-19T05:35:42.047Z,61.68
2023-05-19T05:38:13.675Z,62.25
2023-05-19T05:40:41.946Z,61.90
2023-05-19T05:43:10.496Z,61.48
2023-05-19T05:45:45.413Z,61.69
2023-05-19T05:48:14.003Z,61.40
2023-05-19T05:50:44.460Z,60.29
2023-05-19T05:53:18.872Z,60.60
2023-05-19T05:55:47.922Z,60.08
2023-05-19T05:58:17.000Z,59.44
2023-05-19T06:00:45.349Z,59.98
2023-05-19T06:03:14.501Z,59.35
2023-05-19T06:05:42.569Z,59.62
2023-05-19T06:08:11.227Z,59.86
2023-05-19T06:10:44.064Z,59.75
2023-05-19T06:13:13.878Z,59.37
2023-05-19T06:15:42.686Z,58.50
2023-05-19T06:18:18.099Z,58.54
2023-05-19T06:20:45.988Z,57.66
2023-05-19T06:23:13.877Z,57.53
2023-05-19T06:25:43.115Z,57.86
2023-05-19T06:28:11.103Z,57.21
2023-05-19T06:30:39.495Z,57.42
2023-05-19T06:33:39.788Z,56.04
2023-05-19T06:36:10.010Z,55.37
2023-05-19T06:38:39.971Z,56.19
2023-05-19T06:41:09.653Z,55.69
2023-05-19T06:43:38.378Z,55.48
2023-05-19T06:46:06.431Z,54.96
2023-05-19T06:48:34.858Z,55.22
2023-05-19T06:51:03.943Z,54.49
2023-05-19T06:53:34.927Z,55.32
2023-05-19T06:56:09.094Z,54.53
2023-05-19T06:58:39.760Z,53.94
2023-05-19T07:01:08.078Z,53.41
2023-05-19T07:03:42.712Z,53.46
2023-05-19T07:06:12.543Z,52.03
2023-05-19T07:08:40.481Z,51.04
2023-05-19T07:11:12.332Z,51.67
2023-05-19T07:13:41.441Z,50.39
2023-05-19T07:16:09.731Z,50.55
2023-05-19T07:18:37.718Z,49.06
2023-05-19T07:21:07.228Z,47.60
2023-05-19T07:23:35.191Z,45.88
2023-05-19T07:26:03.254Z,45.43
2023-05-19T07:28:32.463Z,46.57
2023-05-19T07:31:00.698Z,46.64
2023-05-19T07:33:28.618Z,44.31
2023-05-19T07:35:56.631Z,44.39
2023-05-19T07:38:24.533Z,41.46
2023-05-19T07:40:52.549Z,40.17
2023-05-19T07:43:20.437Z,36.93
2023-05-19T07:45:49.734Z,35.63
2023-05-19T07:48:18.770Z,34.83
2023-05-19T07:50:46.773Z,34.51
2023-05-19T07:53:14.814Z,34.86
2023-05-19T07:55:42.756Z,37.20
2023-05-19T07:58:10.647Z,38.32
2023-05-19T08:00:38.624Z,35.25
2023-05-19T08:03:08.252Z,34.11
2023-05-19T08:05:36.321Z,35.17
2023-05-19T08:08:04.352Z,32.91
2023-05-19T08:10:32.464Z,29.38
2023-05-19T08:13:00.529Z,31.62
2023-05-19T08:15:28.487Z,32.39
2023-05-19T08:17:56.408Z,33.38
2023-05-19T08:20:25.793Z,33.37
2023-05-19T08:22:53.687Z,30.34
2023-05-19T08:25:21.713Z,32.08
2023-05-19T08:27:49.647Z,32.07
2023-05-19T08:30:17.628Z,33.15
2023-05-19T08:32:45.531Z,32.58
2023-05-19T08:35:13.510Z,33.35
2023-05-19T08:37:42.820Z,32.67
2023-05-19T08:40:13.483Z,30.94
2023-05-19T08:42:41.383Z,31.54
2023-05-19T08:45:10.021Z,31.96
2023-05-19T08:47:38.004Z,33.11
2023-05-19T08:50:09.883Z,34.72
2023-05-19T08:52:47.867Z,33.94
2023-05-19T08:55:26.003Z,31.78
2023-05-19T08:57:54.206Z,32.25
2023-05-19T09:00:22.489Z,31.16
2023-05-19T09:03:00.946Z,31.65
2023-05-19T09:05:34.648Z,31.62
2023-05-19T09:08:04.876Z,32.64
2023-05-19T09:10:32.728Z,33.00
2023-05-19T09:13:00.684Z,32.72
2023-05-19T09:15:29.262Z,34.23
2023-05-19T09:18:10.440Z,33.34
2023-05-19T09:20:40.148Z,31.73
2023-05-19T09:23:13.652Z,29.49
2023-05-19T09:25:48.150Z,30.42
2023-05-19T09:28:16.348Z,30.52
2023-05-19T09:30:44.286Z,29.32
2023-05-19T09:33:12.782Z,29.21
2023-05-19T09:35:40.732Z,31.05
2023-05-19T09:38:10.999Z,30.94
2023-05-19T09:40:38.836Z,27.62
2023-05-19T09:43:09.001Z,29.12
2023-05-19T09:45:37.200Z,29.35
2023-05-19T09:48:05.656Z,28.09
2023-05-19T09:50:33.950Z,27.84
2023-05-19T09:53:01.937Z,28.26
2023-05-19T09:55:33.008Z,29.96
2023-05-19T09:58:04.057Z,29.91
2023-05-19T10:00:34.068Z,28.43
2023-05-19T10:03:03.127Z,28.16
2023-05-19T10:05:31.625Z,27.95
2023-05-19T10:08:00.312Z,28.19
2023-05-19T10:10:28.822Z,29.87
2023-05-19T10:13:00.170Z,30.00
2023-05-19T10:15:28.421Z,31.07
2023-05-19T10:17:56.945Z,31.93
2023-05-19T10:20:25.012Z,30.40
2023-05-19T10:22:52.986Z,30.27
2023-05-19T10:25:21.138Z,31.34
2023-05-19T10:27:53.173Z,30.78
2023-05-19T10:30:27.666Z,29.37
2023-05-19T10:32:57.949Z,29.01
2023-05-19T10:35:48.631Z,31.51
2023-05-19T10:38:26.075Z,32.38
2023-05-19T10:41:01.575Z,32.34
2023-05-19T10:43:38.667Z,31.45
2023-05-19T10:46:08.113Z,31.73
2023-05-19T10:48:37.090Z,33.57
2023-05-19T10:51:06.271Z,35.04
2023-05-19T10:53:35.120Z,34.93
2023-05-19T10:56:04.154Z,35.26
2023-05-19T10:58:40.096Z,34.68
2023-05-19T11:01:11.002Z,35.05
2023-05-19T11:03:49.079Z,33.21
2023-05-19T11:06:21.594Z,32.55
2023-05-19T11:08:54.409Z,32.41
2023-05-19T11:11:23.382Z,32.75
2023-05-19T11:13:56.107Z,32.75
2023-05-19T11:16:33.376Z,32.69
2023-05-19T11:19:01.686Z,33.52
2023-05-19T11:21:42.809Z,33.01
2023-05-19T11:24:10.907Z,33.25
2023-05-19T11:26:42.917Z,32.57
2023-05-19T11:29:11.561Z,32.42
2023-05-19T11:31:41.273Z,32.17
2023-05-19T11:34:09.270Z,33.48
2023-05-19T11:36:38.104Z,33.73
2023-05-19T11:39:07.131Z,34.15
2023-05-19T11:41:40.549Z,33.45
2023-05-19T11:44:11.293Z,33.25
2023-05-19T11:46:40.754Z,33.14
2023-05-19T11:49:08.857Z,32.85
2023-05-19T11:51:38.297Z,33.87
2023-05-19T11:54:06.815Z,34.42
2023-05-19T11:56:35.803Z,34.22
2023-05-19T11:59:03.740Z,34.00
2023-05-19T12:01:31.965Z,34.68
2023-05-19T12:04:01.443Z,33.87
2023-05-19T12:06:29.867Z,32.69
2023-05-19T12:08:59.201Z,32.65
2023-05-19T12:11:29.558Z,32.98
2023-05-19T12:14:00.266Z,32.79
2023-05-19T12:16:34.529Z,33.11
2023-05-19T12:19:06.644Z,32.38
2023-05-19T12:21:34.676Z,30.81
2023-05-19T12:24:02.802Z,31.52
2023-05-19T12:26:30.681Z,32.86
2023-05-19T12:28:59.725Z,33.52
2023-05-19T12:31:27.871Z,33.39
2023-05-19T12:33:56.858Z,33.75
2023-05-19T12:36:27.057Z,34.48
2023-05-19T12:38:55.587Z,34.26
2023-05-19T12:41:25.438Z,34.67
2023-05-19T12:43:53.764Z,34.69
2023-05-19T12:46:22.504Z,34.22
2023-05-19T12:48:51.573Z,34.81
2023-05-19T12:51:19.982Z,35.45
2023-05-19T12:53:51.377Z,37.04
2023-05-19T12:56:19.542Z,37.51
2023-05-19T12:58:47.672Z,36.00
2023-05-19T13:01:19.237Z,35.27
2023-05-19T13:03:47.561Z,34.41
2023-05-19T13:06:15.846Z,33.41
2023-05-19T13:08:43.780Z,33.88
2023-05-19T13:11:13.077Z,33.93
2023-05-19T13:13:41.066Z,34.08
2023-05-19T13:16:09.183Z,33.68
2023-05-19T13:18:38.341Z,32.56
2023-05-19T13:21:06.670Z,32.92
2023-05-19T13:23:35.073Z,35.11
2023-05-19T13:26:04.974Z,35.46
2023-05-19T13:28:34.859Z,35.03
2023-05-19T13:31:02.977Z,35.00
2023-05-19T13:33:31.011Z,34.79
2023-05-19T13:35:58.983Z,35.29
2023-05-19T13:38:26.929Z,35.74
2023-05-19T13:40:54.900Z,37.17
2023-05-19T13:43:22.947Z,36.91
2023-05-19T13:45:52.329Z,37.25
2023-05-19T13:48:20.482Z,37.45
2023-05-19T13:50:48.537Z,37.50
2023-05-19T13:53:16.485Z,37.78
2023-05-19T13:55:44.550Z,37.30
2023-05-19T13:58:14.324Z,37.02
2023-05-19T14:00:42.275Z,36.96
2023-05-19T14:03:11.755Z,36.67
2023-05-19T14:05:39.867Z,36.56
2023-05-19T14:08:07.735Z,37.20
2023-05-19T14:10:35.998Z,37.69
2023-05-19T14:13:29.718Z,38.21
2023-05-19T14:15:52.463Z,37.82
2023-05-19T14:18:21.877Z,37.73
2023-05-19T14:20:49.787Z,37.51
2023-05-19T14:23:19.909Z,37.95
2023-05-19T14:25:47.883Z,37.51
2023-05-19T14:28:15.734Z,37.66
2023-05-19T14:30:44.201Z,38.02
2023-05-19T14:33:12.156Z,37.94
2023-05-19T14:35:41.547Z,38.81
2023-05-19T14:38:09.556Z,38.94
2023-05-19T14:40:37.793Z,39.42
2023-05-19T14:43:05.734Z,39.15
2023-05-19T14:45:33.633Z,39.05
2023-05-19T14:48:01.505Z,38.62
2023-05-19T14:50:29.556Z,38.56
2023-05-19T14:52:59.022Z,38.26
2023-05-19T14:55:26.926Z,37.75
2023-05-19T14:57:54.777Z,38.33
2023-05-19T15:00:22.684Z,39.25
2023-05-19T15:02:51.632Z,38.83
2023-05-19T15:05:19.611Z,39.22
2023-05-19T15:07:47.462Z,39.57
2023-05-19T15:10:16.957Z,39.72
2023-05-19T15:12:44.863Z,39.63
2023-05-19T15:15:12.825Z,39.30
2023-05-19T15:17:41.064Z,39.76
2023-05-19T15:20:09.727Z,39.84
2023-05-19T15:22:37.636Z,39.64
2023-05-19T15:25:06.303Z,38.77
2023-05-19T15:27:37.166Z,38.28
2023-05-19T15:30:05.570Z,38.31
2023-05-19T15:32:34.758Z,37.83
2023-05-19T15:35:02.644Z,36.59
2023-05-19T15:37:30.579Z,35.69
2023-05-19T15:39:58.589Z,35.40
2023-05-19T15:42:26.642Z,34.46
2023-05-19T15:44:55.919Z,36.44
2023-05-19T15:47:23.957Z,38.24
2023-05-19T15:49:51.872Z,38.93
2023-05-19T15:52:19.845Z,39.51
2023-05-19T15:54:48.686Z,39.83
2023-05-19T15:57:16.742Z,39.69
2023-05-19T15:59:44.943Z,39.54
2023-05-19T16:02:14.380Z,39.15
2023-05-19T16:04:42.466Z,39.56
2023-05-19T16:07:10.378Z,40.16
2023-05-19T16:09:38.253Z,40.38
2023-05-19T16:12:06.797Z,40.09
2023-05-19T16:14:36.546Z,39.79
2023-05-19T16:17:04.721Z,39.45
2023-05-19T16:19:34.212Z,39.12
2023-05-19T16:22:02.152Z,39.15
2023-05-19T16:24:30.008Z,38.49
2023-05-19T16:26:57.966Z,39.02
2023-05-19T16:29:26.001Z,39.88
2023-05-19T16:31:54.015Z,40.08
2023-05-19T16:34:21.954Z,40.88
2023-05-19T16:36:51.297Z,40.33
2023-05-19T16:39:19.225Z,40.80
2023-05-19T16:41:47.092Z,40.26
2023-05-19T16:44:15.044Z,39.86
2023-05-19T16:46:43.186Z,39.16
2023-05-19T16:49:11.272Z,39.25
2023-05-19T16:51:39.127Z,39.82
2023-05-19T16:54:08.375Z,40.23
2023-05-19T16:56:36.300Z,40.43
2023-05-19T16:59:04.210Z,41.13
2023-05-19T17:01:32.636Z,41.39
2023-05-19T17:04:00.688Z,41.58
2023-05-19T17:06:28.593Z,41.77
2023-05-19T17:08:56.452Z,41.63
2023-05-19T17:11:26.697Z,41.62
2023-05-19T17:13:54.722Z,41.76
2023-05-19T17:16:23.368Z,42.11
2023-05-19T17:18:51.478Z,42.62
2023-05-19T17:21:19.545Z,42.37
2023-05-19T17:23:47.557Z,42.44
2023-05-19T17:26:15.828Z,42.87
2023-05-19T17:28:45.169Z,42.96
2023-05-19T17:31:13.655Z,43.46
2023-05-19T17:33:42.109Z,43.28
2023-05-19T17:36:10.068Z,43.48
2023-05-19T17:38:40.233Z,43.27
2023-05-19T17:41:10.720Z,43.50
2023-05-19T17:43:39.052Z,43.42
2023-05-19T17:46:08.951Z,43.62
2023-05-19T17:48:37.193Z,43.67
2023-05-19T17:51:07.046Z,43.58
2023-05-19T17:53:36.544Z,43.14
2023-05-19T17:56:07.244Z,43.13
2023-05-19T17:58:36.022Z,42.77
2023-05-19T18:01:04.250Z,43.15
2023-05-19T18:03:34.554Z,43.39
2023-05-19T18:06:02.714Z,43.84
2023-05-19T18:08:32.066Z,43.35
2023-05-19T18:11:00.352Z,43.67
2023-05-19T18:13:28.270Z,43.95
2023-05-19T18:15:57.706Z,44.14
2023-05-19T18:18:25.665Z,44.14
2023-05-19T18:20:54.945Z,44.31
2023-05-19T18:23:22.818Z,44.88
2023-05-19T18:25:51.697Z,44.97
2023-05-19T18:28:19.616Z,45.00
2023-05-19T18:30:47.559Z,45.35
2023-05-19T18:33:15.462Z,46.23
2023-05-19T18:35:43.375Z,45.85
2023-05-19T18:38:12.601Z,46.17
2023-05-19T18:40:43.892Z,46.63
2023-05-19T18:43:11.782Z,46.87
2023-05-19T18:45:39.816Z,46.81
2023-05-19T18:48:08.207Z,47.27
2023-05-19T18:50:36.460Z,48.01
2023-05-19T18:53:04.510Z,49.14
2023-05-19T18:55:34.033Z,49.33
2023-05-19T18:58:02.536Z,49.53
2023-05-19T19:00:30.927Z,49.86
2023-05-19T19:03:01.729Z,50.26
2023-05-19T19:05:29.759Z,50.84
2023-05-19T19:07:57.748Z,50.93
2023-05-19T19:10:25.773Z,51.18
2023-05-19T19:12:55.220Z,51.17
2023-05-19T19:15:23.153Z,51.35
2023-05-19T19:17:51.341Z,51.72
2023-05-19T19:20:19.388Z,51.56
2023-05-19T19:22:47.359Z,51.84
2023-05-19T19:25:15.545Z,51.86
2023-05-19T19:27:43.519Z,52.01
2023-05-19T19:30:13.468Z,51.95
2023-05-19T19:32:41.303Z,52.08
2023-05-19T19:35:10.327Z,52.18
2023-05-19T19:37:38.388Z,52.21
2023-05-19T19:40:08.126Z,52.15
2023-05-19T19:42:38.224Z,52.95
2023-05-19T19:45:07.393Z,53.02
2023-05-19T19:47:36.882Z,52.68
2023-05-19T19:50:05.807Z,52.98
2023-05-19T19:52:33.866Z,53.02
2023-05-19T19:55:01.760Z,53.08
2023-05-19T19:57:31.611Z,53.08
2023-05-19T20:00:07.452Z,53.50
2023-05-19T20:02:48.388Z,53.37
2023-05-19T20:05:27.222Z,53.82
2023-05-19T20:07:55.293Z,53.88
2023-05-19T20:10:23.317Z,54.04
2023-05-19T20:12:51.767Z,53.89
2023-05-19T20:15:19.974Z,54.07
2023-05-19T20:17:49.308Z,54.69
2023-05-19T20:20:17.625Z,55.02
2023-05-19T20:22:45.959Z,55.25
2023-05-19T20:25:13.964Z,55.04
2023-05-19T20:27:41.864Z,55.39
2023-05-19T20:30:10.600Z,55.29
2023-05-19T20:32:38.934Z,55.41
2023-05-19T20:35:09.240Z,55.86
2023-05-19T20:37:37.190Z,55.47
2023-05-19T20:40:06.197Z,55.75
2023-05-19T20:42:34.244Z,55.73
2023-05-19T20:45:03.013Z,55.72
2023-05-19T20:47:31.169Z,56.12
2023-05-19T20:49:59.620Z,56.25
2023-05-19T20:52:28.972Z,56.00
2023-05-19T20:54:56.842Z,56.58
2023-05-19T20:57:27.171Z,56.36
2023-05-19T20:59:56.769Z,57.04
2023-05-19T21:02:24.700Z,56.79
2023-05-19T21:04:52.884Z,57.49
2023-05-19T21:07:20.897Z,57.71
2023-05-19T21:09:51.432Z,57.62
2023-05-19T21:12:23.808Z,57.60
2023-05-19T21:14:52.002Z,57.53
2023-05-19T21:17:21.014Z,58.28
2023-05-19T21:19:50.579Z,57.88
2023-05-19T21:22:18.860Z,57.71
2023-05-19T21:24:46.876Z,57.98
2023-05-19T21:27:16.248Z,57.78
2023-05-19T21:29:44.223Z,58.26
2023-05-19T21:32:12.242Z,58.35
2023-05-19T21:34:40.762Z,58.44
2023-05-19T21:37:08.648Z,58.77
2023-05-19T21:39:36.534Z,58.72
2023-05-19T21:42:04.814Z,59.36
2023-05-19T21:44:34.081Z,59.09
2023-05-19T21:47:01.987Z,59.20
2023-05-19T21:49:29.865Z,59.56
2023-05-19T21:51:57.719Z,59.47
2023-05-19T21:54:25.802Z,59.76
2023-05-19T21:56:53.698Z,59.94
2023-05-19T21:59:23.174Z,59.85
2023-05-19T22:01:52.839Z,60.01
2023-05-19T22:04:21.228Z,60.14
2023-05-19T22:06:49.444Z,60.50
2023-05-19T22:09:18.008Z,60.22
2023-05-19T22:11:46.270Z,60.46
2023-05-19T22:14:14.774Z,60.59
2023-05-19T22:16:42.965Z,60.98
2023-05-19T22:19:12.621Z,60.98
2023-05-19T22:21:40.677Z,60.80
2023-05-19T22:24:08.642Z,60.95
2023-05-19T22:26:36.569Z,61.31
2023-05-19T22:29:04.426Z,61.44
2023-05-19T22:31:32.422Z,61.29
2023-05-19T22:34:00.468Z,61.46
2023-05-19T22:36:29.813Z,62.10
2023-05-19T22:38:57.810Z,62.38
2023-05-19T22:41:25.775Z,62.21
2023-05-19T22:43:53.703Z,62.39
2023-05-19T22:46:21.670Z,61.76
2023-05-19T22:48:49.829Z,62.18
2023-05-19T22:51:17.732Z,62.30
2023-05-19T22:53:48.448Z,62.81
2023-05-19T22:56:17.607Z,62.33
2023-05-19T22:58:45.758Z,62.39
2023-05-19T23:01:13.756Z,63.04
2023-05-19T23:03:41.750Z,63.14
2023-05-19T23:06:09.644Z,63.14
2023-05-19T23:08:37.623Z,63.37
2023-05-19T23:11:07.282Z,63.83
2023-05-19T23:13:35.176Z,63.60
2023-05-19T23:16:03.049Z,63.86
2023-05-19T23:18:31.142Z,63.80
2023-05-19T23:20:59.170Z,63.75
2023-05-19T23:23:27.679Z,64.25
2023-05-19T23:25:57.090Z,64.42
2023-05-19T23:28:26.437Z,64.50
2023-05-19T23:30:54.523Z,64.88
2023-05-19T23:33:22.537Z,65.41
2023-05-19T23:35:50.777Z,65.35
2023-05-19T23:38:18.700Z,65.65
2023-05-19T23:40:46.635Z,65.42
2023-05-19T23:43:14.610Z,65.96
2023-05-19T23:45:44.120Z,65.75
2023-05-19T23:48:12.158Z,66.61
2023-05-19T23:50:40.148Z,66.76
2023-05-19T23:53:08.217Z,67.34
2023-05-19T23:55:36.306Z,67.45
2023-05-19T23:58:04.372Z,67.17
